sensor_id;sensor_type;location;lat;lon;timestamp;pressure;altitude;pressure_sealevel;temperature;humidity
50384;BME280;36301;48.310;12.786;2022-07-17T00:01:20;97044.28;;;12.99;78.87
50384;BME280;36301;48.310;12.786;2022-07-17T00:03:47;97033.78;;;12.87;78.41
50384;BME280;36301;48.310;12.786;2022-07-17T00:06:13;97041.53;;;12.95;78.36
50384;BME280;36301;48.310;12.786;2022-07-17T00:08:41;97039.53;;;12.89;79.25
50384;BME280;36301;48.310;12.786;2022-07-17T00:11:07;97039.47;;;12.85;79.22
50384;BME280;36301;48.310;12.786;2022-07-17T00:13:33;97029.25;;;12.87;78.67
50384;BME280;36301;48.310;12.786;2022-07-17T00:16:00;97033.16;;;12.93;78.85
50384;BME280;36301;48.310;12.786;2022-07-17T00:18:27;97035.88;;;12.97;77.72
50384;BME280;36301;48.310;12.786;2022-07-17T00:20:53;97031.69;;;12.96;78.32
50384;BME280;36301;48.310;12.786;2022-07-17T00:23:20;97027.00;;;12.89;77.15
50384;BME280;36301;48.310;12.786;2022-07-17T00:25:47;97037.66;;;12.89;77.19
50384;BME280;36301;48.310;12.786;2022-07-17T00:28:14;97035.13;;;12.77;79.08
50384;BME280;36301;48.310;12.786;2022-07-17T00:30:41;97037.50;;;12.82;78.32
50384;BME280;36301;48.310;12.786;2022-07-17T00:33:08;97029.13;;;12.80;77.14
50384;BME280;36301;48.310;12.786;2022-07-17T00:35:34;97029.81;;;12.77;77.85
50384;BME280;36301;48.310;12.786;2022-07-17T00:38:01;97033.69;;;12.80;77.79
50384;BME280;36301;48.310;12.786;2022-07-17T00:40:28;97039.66;;;12.73;78.08
50384;BME280;36301;48.310;12.786;2022-07-17T00:42:54;97035.03;;;12.70;78.88
50384;BME280;36301;48.310;12.786;2022-07-17T00:45:21;97032.41;;;12.51;79.74
50384;BME280;36301;48.310;12.786;2022-07-17T00:48:00;97041.19;;;12.55;79.02
50384;BME280;36301;48.310;12.786;2022-07-17T00:50:38;97040.06;;;12.56;79.25
50384;BME280;36301;48.310;12.786;2022-07-17T00:53:06;97023.09;;;12.41;79.36
50384;BME280;36301;48.310;12.786;2022-07-17T00:55:33;97046.03;;;12.30;79.66
50384;BME280;36301;48.310;12.786;2022-07-17T00:58:10;97048.63;;;12.26;79.69
50384;BME280;36301;48.310;12.786;2022-07-17T01:00:38;97044.22;;;12.14;81.42
50384;BME280;36301;48.310;12.786;2022-07-17T01:03:05;97033.53;;;12.11;80.91
50384;BME280;36301;48.310;12.786;2022-07-17T01:05:31;97047.16;;;12.29;80.09
50384;BME280;36301;48.310;12.786;2022-07-17T01:07:59;97041.97;;;12.16;81.48
50384;BME280;36301;48.310;12.786;2022-07-17T01:10:26;97048.41;;;12.15;80.73
50384;BME280;36301;48.310;12.786;2022-07-17T01:12:52;97037.66;;;12.08;80.54
50384;BME280;36301;48.310;12.786;2022-07-17T01:15:19;97033.03;;;12.05;80.42
50384;BME280;36301;48.310;12.786;2022-07-17T01:17:45;97048.00;;;12.13;81.11
50384;BME280;36301;48.310;12.786;2022-07-17T01:20:13;97044.13;;;12.11;81.45
50384;BME280;36301;48.310;12.786;2022-07-17T01:22:49;97046.03;;;12.10;80.62
50384;BME280;36301;48.310;12.786;2022-07-17T01:25:19;97046.47;;;12.12;80.11
50384;BME280;36301;48.310;12.786;2022-07-17T01:27:47;97047.56;;;12.11;80.36
50384;BME280;36301;48.310;12.786;2022-07-17T01:30:13;97049.31;;;12.04;80.08
50384;BME280;36301;48.310;12.786;2022-07-17T01:32:40;97038.56;;;11.97;82.46
50384;BME280;36301;48.310;12.786;2022-07-17T01:35:09;97042.25;;;11.92;81.86
50384;BME280;36301;48.310;12.786;2022-07-17T01:37:36;97045.81;;;12.00;81.07
50384;BME280;36301;48.310;12.786;2022-07-17T01:40:04;97043.44;;;11.94;81.87
50384;BME280;36301;48.310;12.786;2022-07-17T01:42:30;97044.13;;;11.91;81.44
50384;BME280;36301;48.310;12.786;2022-07-17T01:44:58;97031.97;;;11.75;81.49
50384;BME280;36301;48.310;12.786;2022-07-17T01:47:24;97053.75;;;11.64;82.41
50384;BME280;36301;48.310;12.786;2022-07-17T01:49:54;97050.19;;;11.57;82.79
50384;BME280;36301;48.310;12.786;2022-07-17T01:52:22;97047.31;;;11.65;81.59
50384;BME280;36301;48.310;12.786;2022-07-17T01:54:49;97050.81;;;11.69;81.62
50384;BME280;36301;48.310;12.786;2022-07-17T01:57:16;97046.91;;;11.63;83.15
50384;BME280;36301;48.310;12.786;2022-07-17T01:59:43;97050.31;;;11.64;82.50
50384;BME280;36301;48.310;12.786;2022-07-17T02:02:11;97058.63;;;11.62;83.03
50384;BME280;36301;48.310;12.786;2022-07-17T02:04:39;97044.94;;;11.60;82.36
50384;BME280;36301;48.310;12.786;2022-07-17T02:07:09;97054.78;;;11.60;82.48
50384;BME280;36301;48.310;12.786;2022-07-17T02:09:36;97045.81;;;11.49;82.07
50384;BME280;36301;48.310;12.786;2022-07-17T02:12:04;97053.16;;;11.39;83.73
50384;BME280;36301;48.310;12.786;2022-07-17T02:14:31;97050.53;;;11.39;82.83
50384;BME280;36301;48.310;12.786;2022-07-17T02:16:57;97042.66;;;11.43;82.12
50384;BME280;36301;48.310;12.786;2022-07-17T02:19:24;97050.69;;;11.47;81.90
50384;BME280;36301;48.310;12.786;2022-07-17T02:21:50;97042.25;;;11.41;81.54
50384;BME280;36301;48.310;12.786;2022-07-17T02:24:17;97045.41;;;11.47;81.54
50384;BME280;36301;48.310;12.786;2022-07-17T02:26:44;97046.94;;;11.48;81.14
50384;BME280;36301;48.310;12.786;2022-07-17T02:29:10;97044.91;;;11.41;82.22
50384;BME280;36301;48.310;12.786;2022-07-17T02:31:37;97046.59;;;11.33;82.45
50384;BME280;36301;48.310;12.786;2022-07-17T02:34:03;97050.47;;;11.36;81.74
50384;BME280;36301;48.310;12.786;2022-07-17T02:36:30;97041.81;;;11.23;81.32
50384;BME280;36301;48.310;12.786;2022-07-17T02:38:57;97041.56;;;11.28;80.98
50384;BME280;36301;48.310;12.786;2022-07-17T02:41:24;97053.88;;;11.36;80.84
50384;BME280;36301;48.310;12.786;2022-07-17T02:43:50;97050.47;;;11.36;80.95
50384;BME280;36301;48.310;12.786;2022-07-17T02:46:17;97044.03;;;11.37;80.51
50384;BME280;36301;48.310;12.786;2022-07-17T02:48:44;97051.31;;;11.24;82.99
50384;BME280;36301;48.310;12.786;2022-07-17T02:51:10;97057.72;;;11.23;82.87
50384;BME280;36301;48.310;12.786;2022-07-17T02:53:37;97041.81;;;11.07;83.69
50384;BME280;36301;48.310;12.786;2022-07-17T02:56:04;97058.06;;;11.06;83.96
50384;BME280;36301;48.310;12.786;2022-07-17T02:58:31;97048.56;;;11.05;84.69
50384;BME280;36301;48.310;12.786;2022-07-17T03:00:57;97043.09;;;10.98;83.48
50384;BME280;36301;48.310;12.786;2022-07-17T03:03:24;97053.69;;;11.13;82.18
50384;BME280;36301;48.310;12.786;2022-07-17T03:05:51;97054.41;;;11.10;81.93
50384;BME280;36301;48.310;12.786;2022-07-17T03:08:17;97053.03;;;11.01;83.45
50384;BME280;36301;48.310;12.786;2022-07-17T03:10:44;97051.47;;;11.00;83.12
50384;BME280;36301;48.310;12.786;2022-07-17T03:13:10;97056.44;;;11.01;82.94
50384;BME280;36301;48.310;12.786;2022-07-17T03:15:37;97057.88;;;10.99;84.00
50384;BME280;36301;48.310;12.786;2022-07-17T03:18:03;97051.47;;;11.00;83.78
50384;BME280;36301;48.310;12.786;2022-07-17T03:20:30;97058.84;;;11.06;82.96
50384;BME280;36301;48.310;12.786;2022-07-17T03:22:56;97052.84;;;11.09;82.96
50384;BME280;36301;48.310;12.786;2022-07-17T03:25:23;97050.94;;;11.10;82.86
50384;BME280;36301;48.310;12.786;2022-07-17T03:27:49;97057.81;;;11.11;83.11
50384;BME280;36301;48.310;12.786;2022-07-17T03:30:16;97055.41;;;11.06;82.82
50384;BME280;36301;48.310;12.786;2022-07-17T03:32:42;97060.53;;;10.99;83.82
50384;BME280;36301;48.310;12.786;2022-07-17T03:35:09;97061.47;;;10.90;84.12
50384;BME280;36301;48.310;12.786;2022-07-17T03:37:35;97058.38;;;10.88;84.31
50384;BME280;36301;48.310;12.786;2022-07-17T03:40:06;97057.25;;;10.89;84.83
50384;BME280;36301;48.310;12.786;2022-07-17T03:42:33;97061.53;;;10.94;84.31
50384;BME280;36301;48.310;12.786;2022-07-17T03:44:59;97059.41;;;11.00;83.55
50384;BME280;36301;48.310;12.786;2022-07-17T03:47:26;97060.28;;;11.04;83.58
50384;BME280;36301;48.310;12.786;2022-07-17T03:49:52;97049.84;;;10.95;83.08
50384;BME280;36301;48.310;12.786;2022-07-17T03:52:19;97056.50;;;11.05;83.41
50384;BME280;36301;48.310;12.786;2022-07-17T03:54:45;97059.41;;;11.00;84.02
50384;BME280;36301;48.310;12.786;2022-07-17T03:57:12;97056.44;;;11.01;83.24
50384;BME280;36301;48.310;12.786;2022-07-17T03:59:38;97066.84;;;11.10;82.59
50384;BME280;36301;48.310;12.786;2022-07-17T04:02:05;97074.03;;;11.09;82.33
50384;BME280;36301;48.310;12.786;2022-07-17T04:04:31;97069.25;;;11.15;82.23
50384;BME280;36301;48.310;12.786;2022-07-17T04:06:58;97071.38;;;11.09;83.86
50384;BME280;36301;48.310;12.786;2022-07-17T04:09:24;97070.44;;;11.02;84.35
50384;BME280;36301;48.310;12.786;2022-07-17T04:11:51;97065.56;;;11.20;83.58
50384;BME280;36301;48.310;12.786;2022-07-17T04:14:17;97069.34;;;11.34;83.01
50384;BME280;36301;48.310;12.786;2022-07-17T04:16:44;97069.25;;;11.47;82.68
50384;BME280;36301;48.310;12.786;2022-07-17T04:19:10;97078.41;;;11.49;82.44
50384;BME280;36301;48.310;12.786;2022-07-17T04:21:37;97069.31;;;11.50;82.21
50384;BME280;36301;48.310;12.786;2022-07-17T04:24:04;97064.03;;;11.66;81.73
50384;BME280;36301;48.310;12.786;2022-07-17T04:26:30;97070.13;;;12.21;78.94
50384;BME280;36301;48.310;12.786;2022-07-17T04:28:59;97062.16;;;12.79;76.20
50384;BME280;36301;48.310;12.786;2022-07-17T04:31:25;97061.50;;;13.28;73.69
50384;BME280;36301;48.310;12.786;2022-07-17T04:33:53;97069.69;;;13.95;71.47
50384;BME280;36301;48.310;12.786;2022-07-17T04:36:20;97077.78;;;14.63;69.56
50384;BME280;36301;48.310;12.786;2022-07-17T04:38:47;97078.53;;;15.41;67.53
50384;BME280;36301;48.310;12.786;2022-07-17T04:41:13;97074.84;;;16.19;63.71
50384;BME280;36301;48.310;12.786;2022-07-17T04:43:40;97064.31;;;16.58;61.59
50384;BME280;36301;48.310;12.786;2022-07-17T04:46:06;97061.00;;;17.36;57.68
50384;BME280;36301;48.310;12.786;2022-07-17T04:48:33;97074.38;;;17.72;57.53
50384;BME280;36301;48.310;12.786;2022-07-17T04:50:59;97071.28;;;18.05;56.56
50384;BME280;36301;48.310;12.786;2022-07-17T04:53:26;97076.06;;;18.60;54.24
50384;BME280;36301;48.310;12.786;2022-07-17T04:55:52;97080.00;;;19.11;53.00
50384;BME280;36301;48.310;12.786;2022-07-17T04:58:19;97073.50;;;19.57;52.41
50384;BME280;36301;48.310;12.786;2022-07-17T05:00:45;97072.81;;;19.91;50.87
50384;BME280;36301;48.310;12.786;2022-07-17T05:03:12;97079.75;;;20.60;48.93
50384;BME280;36301;48.310;12.786;2022-07-17T05:05:39;97078.66;;;20.85;48.40
50384;BME280;36301;48.310;12.786;2022-07-17T05:08:06;97081.50;;;21.01;48.57
50384;BME280;36301;48.310;12.786;2022-07-17T05:10:33;97082.00;;;21.70;46.83
50384;BME280;36301;48.310;12.786;2022-07-17T05:12:59;97076.03;;;22.25;45.51
50384;BME280;36301;48.310;12.786;2022-07-17T05:15:26;97084.56;;;22.40;43.91
50384;BME280;36301;48.310;12.786;2022-07-17T05:17:53;97076.56;;;22.37;42.70
50384;BME280;36301;48.310;12.786;2022-07-17T05:20:19;97078.63;;;22.49;43.34
50384;BME280;36301;48.310;12.786;2022-07-17T05:22:46;97084.59;;;22.96;43.19
50384;BME280;36301;48.310;12.786;2022-07-17T05:25:12;97084.88;;;23.35;41.17
50384;BME280;36301;48.310;12.786;2022-07-17T05:27:39;97092.09;;;22.89;41.72
50384;BME280;36301;48.310;12.786;2022-07-17T05:30:05;97089.41;;;23.87;40.01
50384;BME280;36301;48.310;12.786;2022-07-17T05:32:32;97086.38;;;23.85;39.95
50384;BME280;36301;48.310;12.786;2022-07-17T05:34:59;97086.16;;;24.08;39.15
50384;BME280;36301;48.310;12.786;2022-07-17T05:37:25;97089.59;;;23.79;39.60
50384;BME280;36301;48.310;12.786;2022-07-17T05:39:52;97089.88;;;23.69;39.90
50384;BME280;36301;48.310;12.786;2022-07-17T05:42:19;97090.31;;;24.54;38.89
50384;BME280;36301;48.310;12.786;2022-07-17T05:44:45;97088.13;;;25.29;37.25
50384;BME280;36301;48.310;12.786;2022-07-17T05:47:12;97096.16;;;25.20;37.42
50384;BME280;36301;48.310;12.786;2022-07-17T05:49:38;97083.88;;;25.28;36.96
50384;BME280;36301;48.310;12.786;2022-07-17T05:52:05;97095.66;;;25.47;36.87
50384;BME280;36301;48.310;12.786;2022-07-17T05:54:31;97092.47;;;25.87;36.17
50384;BME280;36301;48.310;12.786;2022-07-17T05:57:01;97087.97;;;25.93;36.53
50384;BME280;36301;48.310;12.786;2022-07-17T05:59:35;97092.63;;;26.27;34.99
50384;BME280;36301;48.310;12.786;2022-07-17T06:02:01;97093.13;;;25.78;36.67
50384;BME280;36301;48.310;12.786;2022-07-17T06:04:28;97095.06;;;25.91;36.35
50384;BME280;36301;48.310;12.786;2022-07-17T06:06:55;97094.47;;;25.48;37.91
50384;BME280;36301;48.310;12.786;2022-07-17T06:09:21;97104.88;;;24.86;37.73
50384;BME280;36301;48.310;12.786;2022-07-17T06:11:47;97107.03;;;24.66;37.95
50384;BME280;36301;48.310;12.786;2022-07-17T06:14:14;97081.44;;;24.54;38.94
50384;BME280;36301;48.310;12.786;2022-07-17T06:16:41;97099.69;;;25.55;38.09
50384;BME280;36301;48.310;12.786;2022-07-17T06:19:07;97101.44;;;25.36;38.01
50384;BME280;36301;48.310;12.786;2022-07-17T06:21:34;97106.16;;;25.71;36.77
50384;BME280;36301;48.310;12.786;2022-07-17T06:24:00;97097.22;;;25.23;37.74
50384;BME280;36301;48.310;12.786;2022-07-17T06:26:27;97099.38;;;25.28;38.16
50384;BME280;36301;48.310;12.786;2022-07-17T06:28:53;97107.28;;;25.95;36.96
50384;BME280;36301;48.310;12.786;2022-07-17T06:31:20;97112.41;;;26.15;35.52
50384;BME280;36301;48.310;12.786;2022-07-17T06:33:48;97107.16;;;25.99;36.57
50384;BME280;36301;48.310;12.786;2022-07-17T06:36:14;97100.38;;;26.60;35.39
50384;BME280;36301;48.310;12.786;2022-07-17T06:38:41;97109.03;;;26.24;35.81
50384;BME280;36301;48.310;12.786;2022-07-17T06:41:07;97101.22;;;26.48;35.15
50384;BME280;36301;48.310;12.786;2022-07-17T06:43:34;97113.63;;;26.14;36.66
50384;BME280;36301;48.310;12.786;2022-07-17T06:46:00;97111.09;;;25.98;35.87
50384;BME280;36301;48.310;12.786;2022-07-17T06:48:27;97123.47;;;25.26;37.02
50384;BME280;36301;48.310;12.786;2022-07-17T06:50:53;97119.38;;;26.16;35.58
50384;BME280;36301;48.310;12.786;2022-07-17T06:53:20;97120.41;;;26.53;35.08
50384;BME280;36301;48.310;12.786;2022-07-17T06:55:47;97124.94;;;26.78;35.35
50384;BME280;36301;48.310;12.786;2022-07-17T06:58:13;97125.38;;;25.38;35.36
50384;BME280;36301;48.310;12.786;2022-07-17T07:00:40;97123.31;;;25.80;36.78
50384;BME280;36301;48.310;12.786;2022-07-17T07:03:06;97118.97;;;26.05;34.98
50384;BME280;36301;48.310;12.786;2022-07-17T07:05:34;97127.00;;;25.48;36.14
50384;BME280;36301;48.310;12.786;2022-07-17T07:08:00;97126.28;;;25.22;36.15
50384;BME280;36301;48.310;12.786;2022-07-17T07:10:27;97125.53;;;25.34;36.10
50384;BME280;36301;48.310;12.786;2022-07-17T07:12:54;97128.38;;;25.78;34.58
50384;BME280;36301;48.310;12.786;2022-07-17T07:15:21;97128.50;;;25.62;36.03
50384;BME280;36301;48.310;12.786;2022-07-17T07:17:47;97129.47;;;25.68;35.74
50384;BME280;36301;48.310;12.786;2022-07-17T07:20:14;97129.25;;;26.10;35.81
50384;BME280;36301;48.310;12.786;2022-07-17T07:22:40;97109.44;;;27.19;34.37
50384;BME280;36301;48.310;12.786;2022-07-17T07:25:07;97115.84;;;27.03;33.54
50384;BME280;36301;48.310;12.786;2022-07-17T07:27:34;97105.69;;;27.26;32.81
50384;BME280;36301;48.310;12.786;2022-07-17T07:30:01;97115.97;;;27.31;34.67
50384;BME280;36301;48.310;12.786;2022-07-17T07:32:27;97119.72;;;26.62;34.96
50384;BME280;36301;48.310;12.786;2022-07-17T07:34:54;97118.28;;;26.48;34.56
50384;BME280;36301;48.310;12.786;2022-07-17T07:37:21;97125.16;;;27.83;34.40
50384;BME280;36301;48.310;12.786;2022-07-17T07:39:47;97117.00;;;27.83;32.85
50384;BME280;36301;48.310;12.786;2022-07-17T07:42:14;97119.47;;;26.47;34.76
50384;BME280;36301;48.310;12.786;2022-07-17T07:44:40;97123.09;;;26.75;35.14
50384;BME280;36301;48.310;12.786;2022-07-17T07:47:07;97124.50;;;26.36;34.11
50384;BME280;36301;48.310;12.786;2022-07-17T07:49:33;97123.41;;;26.33;34.03
50384;BME280;36301;48.310;12.786;2022-07-17T07:52:06;97128.97;;;26.08;34.64
50384;BME280;36301;48.310;12.786;2022-07-17T07:54:33;97116.91;;;26.09;35.54
50384;BME280;36301;48.310;12.786;2022-07-17T07:57:00;97119.91;;;26.46;35.09
50384;BME280;36301;48.310;12.786;2022-07-17T07:59:28;97130.19;;;27.04;33.91
50384;BME280;36301;48.310;12.786;2022-07-17T08:01:54;97132.50;;;26.39;35.30
50384;BME280;36301;48.310;12.786;2022-07-17T08:04:22;97126.78;;;26.37;34.64
50384;BME280;36301;48.310;12.786;2022-07-17T08:06:48;97135.59;;;26.29;35.02
50384;BME280;36301;48.310;12.786;2022-07-17T08:09:15;97129.00;;;27.05;33.87
50384;BME280;36301;48.310;12.786;2022-07-17T08:11:42;97129.06;;;27.14;34.44
50384;BME280;36301;48.310;12.786;2022-07-17T08:14:08;97134.09;;;27.25;34.86
50384;BME280;36301;48.310;12.786;2022-07-17T08:16:42;97131.56;;;28.44;32.96
50384;BME280;36301;48.310;12.786;2022-07-17T08:19:09;97136.41;;;28.40;32.23
50384;BME280;36301;48.310;12.786;2022-07-17T08:21:35;97146.44;;;27.66;32.98
50384;BME280;36301;48.310;12.786;2022-07-17T08:24:02;97140.91;;;27.79;33.06
50384;BME280;36301;48.310;12.786;2022-07-17T08:26:29;97146.81;;;28.32;34.04
50384;BME280;36301;48.310;12.786;2022-07-17T08:28:56;97141.06;;;27.84;33.96
50384;BME280;36301;48.310;12.786;2022-07-17T08:31:22;97153.50;;;26.61;34.38
50384;BME280;36301;48.310;12.786;2022-07-17T08:33:49;97151.72;;;27.20;34.58
50384;BME280;36301;48.310;12.786;2022-07-17T08:36:16;97153.50;;;28.04;33.41
50384;BME280;36301;48.310;12.786;2022-07-17T08:38:42;97149.28;;;27.62;34.03
50384;BME280;36301;48.310;12.786;2022-07-17T08:41:09;97148.81;;;28.13;33.08
50384;BME280;36301;48.310;12.786;2022-07-17T08:43:42;97154.94;;;27.77;32.48
50384;BME280;36301;48.310;12.786;2022-07-17T08:46:12;97162.72;;;28.06;31.72
50384;BME280;36301;48.310;12.786;2022-07-17T08:48:45;97160.88;;;28.12;30.75
50384;BME280;36301;48.310;12.786;2022-07-17T08:51:12;97167.13;;;28.40;31.40
50384;BME280;36301;48.310;12.786;2022-07-17T08:53:41;97158.31;;;28.18;32.86
50384;BME280;36301;48.310;12.786;2022-07-17T08:56:10;97154.09;;;27.99;32.05
50384;BME280;36301;48.310;12.786;2022-07-17T08:58:36;97148.34;;;28.06;32.65
50384;BME280;36301;48.310;12.786;2022-07-17T09:01:03;97153.56;;;27.63;32.55
50384;BME280;36301;48.310;12.786;2022-07-17T09:03:29;97149.41;;;27.99;33.88
50384;BME280;36301;48.310;12.786;2022-07-17T09:05:56;97151.97;;;27.93;30.94
50384;BME280;36301;48.310;12.786;2022-07-17T09:08:24;97149.25;;;28.12;30.18
50384;BME280;36301;48.310;12.786;2022-07-17T09:10:53;97139.91;;;28.40;30.07
50384;BME280;36301;48.310;12.786;2022-07-17T09:15:56;97141.22;;;27.90;30.30
50384;BME280;36301;48.310;12.786;2022-07-17T09:18:23;97148.19;;;28.64;31.59
50384;BME280;36301;48.310;12.786;2022-07-17T09:20:56;97129.63;;;27.49;31.83
50384;BME280;36301;48.310;12.786;2022-07-17T09:23:26;97138.22;;;26.54;33.23
50384;BME280;36301;48.310;12.786;2022-07-17T09:25:56;97132.00;;;28.06;30.70
50384;BME280;36301;48.310;12.786;2022-07-17T09:28:23;97129.44;;;28.30;32.31
50384;BME280;36301;48.310;12.786;2022-07-17T09:30:52;97123.16;;;27.56;31.71
50384;BME280;36301;48.310;12.786;2022-07-17T09:33:22;97133.97;;;28.14;32.31
50384;BME280;36301;48.310;12.786;2022-07-17T09:35:51;97133.97;;;28.33;32.26
50384;BME280;36301;48.310;12.786;2022-07-17T09:38:39;97122.19;;;28.54;31.35
50384;BME280;36301;48.310;12.786;2022-07-17T09:41:16;97128.81;;;28.53;31.03
50384;BME280;36301;48.310;12.786;2022-07-17T09:43:48;97133.66;;;28.58;29.97
50384;BME280;36301;48.310;12.786;2022-07-17T09:46:20;97133.22;;;28.32;29.77
50384;BME280;36301;48.310;12.786;2022-07-17T09:48:55;97134.13;;;28.29;30.29
50384;BME280;36301;48.310;12.786;2022-07-17T09:51:28;97133.22;;;27.96;30.52
50384;BME280;36301;48.310;12.786;2022-07-17T09:53:57;97132.00;;;28.52;31.42
50384;BME280;36301;48.310;12.786;2022-07-17T09:56:29;97128.19;;;28.77;32.01
50384;BME280;36301;48.310;12.786;2022-07-17T09:59:18;97132.50;;;28.92;29.82
50384;BME280;36301;48.310;12.786;2022-07-17T10:01:45;97137.91;;;28.32;30.69
50384;BME280;36301;48.310;12.786;2022-07-17T10:04:16;97131.69;;;27.76;31.10
50384;BME280;36301;48.310;12.786;2022-07-17T10:06:43;97136.59;;;27.10;31.30
50384;BME280;36301;48.310;12.786;2022-07-17T10:09:10;97141.63;;;27.21;32.41
50384;BME280;36301;48.310;12.786;2022-07-17T10:11:38;97140.38;;;27.53;31.39
50384;BME280;36301;48.310;12.786;2022-07-17T10:14:14;97134.72;;;27.78;32.42
50384;BME280;36301;48.310;12.786;2022-07-17T10:16:41;97136.72;;;28.14;31.97
50384;BME280;36301;48.310;12.786;2022-07-17T10:19:15;97145.91;;;28.54;30.73
50384;BME280;36301;48.310;12.786;2022-07-17T10:21:55;97134.25;;;28.07;29.94
50384;BME280;36301;48.310;12.786;2022-07-17T10:24:23;97141.84;;;28.12;31.92
50384;BME280;36301;48.310;12.786;2022-07-17T10:26:50;97156.50;;;27.38;30.83
50384;BME280;36301;48.310;12.786;2022-07-17T10:29:30;97151.66;;;27.33;31.51
50384;BME280;36301;48.310;12.786;2022-07-17T10:31:58;97144.28;;;27.52;31.41
50384;BME280;36301;48.310;12.786;2022-07-17T10:37:27;97135.88;;;26.22;32.16
50384;BME280;36301;48.310;12.786;2022-07-17T10:40:00;97137.41;;;26.45;31.84
50384;BME280;36301;48.310;12.786;2022-07-17T10:45:07;97135.25;;;27.14;32.54
50384;BME280;36301;48.310;12.786;2022-07-17T10:47:48;97143.44;;;26.27;32.32
50384;BME280;36301;48.310;12.786;2022-07-17T10:50:17;97140.69;;;26.05;33.23
50384;BME280;36301;48.310;12.786;2022-07-17T10:55:24;97137.94;;;26.83;32.92
50384;BME280;36301;48.310;12.786;2022-07-17T10:57:50;97136.03;;;26.62;32.37
50384;BME280;36301;48.310;12.786;2022-07-17T11:00:17;97130.44;;;26.97;33.09
50384;BME280;36301;48.310;12.786;2022-07-17T11:02:44;97131.25;;;26.31;33.41
50384;BME280;36301;48.310;12.786;2022-07-17T11:05:12;97137.75;;;26.34;34.68
50384;BME280;36301;48.310;12.786;2022-07-17T11:07:54;97129.94;;;26.80;33.25
50384;BME280;36301;48.310;12.786;2022-07-17T11:10:25;97122.22;;;26.78;32.75
50384;BME280;36301;48.310;12.786;2022-07-17T11:13:06;97124.00;;;27.03;32.01
50384;BME280;36301;48.310;12.786;2022-07-17T11:18:17;97122.00;;;26.63;32.81
50384;BME280;36301;48.310;12.786;2022-07-17T11:20:48;97120.50;;;26.94;33.19
50384;BME280;36301;48.310;12.786;2022-07-17T11:23:15;97126.03;;;26.59;32.02
50384;BME280;36301;48.310;12.786;2022-07-17T11:28:37;97113.91;;;26.73;31.13
50384;BME280;36301;48.310;12.786;2022-07-17T11:31:22;97114.13;;;27.19;33.09
50384;BME280;36301;48.310;12.786;2022-07-17T11:34:02;97102.44;;;26.78;30.96
50384;BME280;36301;48.310;12.786;2022-07-17T11:36:32;97098.41;;;26.91;33.08
50384;BME280;36301;48.310;12.786;2022-07-17T11:41:33;97106.78;;;26.97;30.86
50384;BME280;36301;48.310;12.786;2022-07-17T11:44:00;97111.31;;;27.40;31.70
50384;BME280;36301;48.310;12.786;2022-07-17T11:46:30;97108.78;;;27.55;29.93
50384;BME280;36301;48.310;12.786;2022-07-17T11:48:57;97106.69;;;27.59;30.79
50384;BME280;36301;48.310;12.786;2022-07-17T11:51:43;97101.97;;;27.51;30.90
50384;BME280;36301;48.310;12.786;2022-07-17T11:54:14;97095.13;;;27.37;30.68
50384;BME280;36301;48.310;12.786;2022-07-17T11:56:42;97104.63;;;27.23;28.63
50384;BME280;36301;48.310;12.786;2022-07-17T11:59:10;97099.97;;;27.42;30.54
50384;BME280;36301;48.310;12.786;2022-07-17T12:01:44;97087.59;;;27.41;29.65
50384;BME280;36301;48.310;12.786;2022-07-17T12:04:13;97100.66;;;26.53;29.76
50384;BME280;36301;48.310;12.786;2022-07-17T12:06:42;97094.69;;;26.67;29.53
50384;BME280;36301;48.310;12.786;2022-07-17T12:09:09;97092.69;;;26.58;29.96
50384;BME280;36301;48.310;12.786;2022-07-17T12:11:46;97088.34;;;27.01;27.76
50384;BME280;36301;48.310;12.786;2022-07-17T12:14:12;97093.16;;;26.66;28.64
50384;BME280;36301;48.310;12.786;2022-07-17T12:16:39;97098.03;;;26.27;29.42
50384;BME280;36301;48.310;12.786;2022-07-17T12:19:11;97089.50;;;26.60;29.92
50384;BME280;36301;48.310;12.786;2022-07-17T12:21:48;97086.19;;;26.87;29.55
50384;BME280;36301;48.310;12.786;2022-07-17T12:24:20;97085.16;;;26.94;28.19
50384;BME280;36301;48.310;12.786;2022-07-17T12:26:47;97080.09;;;26.30;30.40
50384;BME280;36301;48.310;12.786;2022-07-17T12:29:14;97086.72;;;26.73;30.57
50384;BME280;36301;48.310;12.786;2022-07-17T12:31:41;97071.19;;;26.73;30.30
50384;BME280;36301;48.310;12.786;2022-07-17T12:34:07;97087.50;;;26.29;30.20
50384;BME280;36301;48.310;12.786;2022-07-17T12:36:34;97094.19;;;26.37;31.35
50384;BME280;36301;48.310;12.786;2022-07-17T12:39:01;97079.22;;;26.77;29.42
50384;BME280;36301;48.310;12.786;2022-07-17T12:41:27;97069.28;;;26.52;29.81
50384;BME280;36301;48.310;12.786;2022-07-17T12:43:54;97080.38;;;27.07;30.82
50384;BME280;36301;48.310;12.786;2022-07-17T12:46:20;97075.81;;;26.95;28.70
50384;BME280;36301;48.310;12.786;2022-07-17T12:48:47;97071.16;;;27.04;29.48
50384;BME280;36301;48.310;12.786;2022-07-17T12:51:14;97067.94;;;26.97;27.48
50384;BME280;36301;48.310;12.786;2022-07-17T12:53:42;97069.41;;;26.79;27.73
50384;BME280;36301;48.310;12.786;2022-07-17T12:56:08;97073.88;;;27.04;28.93
50384;BME280;36301;48.310;12.786;2022-07-17T12:58:36;97066.75;;;27.38;29.13
50384;BME280;36301;48.310;12.786;2022-07-17T13:01:03;97073.88;;;27.04;28.45
50384;BME280;36301;48.310;12.786;2022-07-17T13:03:31;97072.97;;;27.48;28.99
50384;BME280;36301;48.310;12.786;2022-07-17T13:05:59;97067.03;;;27.31;28.77
50384;BME280;36301;48.310;12.786;2022-07-17T13:08:28;97065.09;;;27.50;27.44
50384;BME280;36301;48.310;12.786;2022-07-17T13:10:55;97062.97;;;27.45;28.61
50384;BME280;36301;48.310;12.786;2022-07-17T13:13:22;97060.00;;;27.02;28.22